createdAt,value
2019-05-20T00:01:00.887Z,11.87
2019-05-20T00:03:29.782Z,15.37
2019-05-20T00:05:58.536Z,12.87
2019-05-20T00:08:26.223Z,13.93
2019-05-20T00:10:53.996Z,15.90
2019-05-20T00:13:21.718Z,20.10
2019-05-20T00:15:50.175Z,28.50
2019-05-20T00:18:17.985Z,26.57
2019-05-20T00:20:45.758Z,25.73
2019-05-20T00:23:13.475Z,23.57
2019-05-20T00:25:41.222Z,23.73
2019-05-20T00:28:08.967Z,21.93
2019-05-20T00:30:36.761Z,19.37
2019-05-20T00:33:04.448Z,18.50
2019-05-20T00:35:32.284Z,19.67
2019-05-20T00:37:59.967Z,18.47
2019-05-20T00:40:27.866Z,14.97
2019-05-20T00:42:55.618Z,13.47
2019-05-20T00:45:23.489Z,14.07
2019-05-20T00:47:51.319Z,13.43
2019-05-20T00:50:19.255Z,16.40
2019-05-20T00:52:47.007Z,14.43
2019-05-20T00:55:23.537Z,10.80
2019-05-20T00:57:51.404Z,12.33
2019-05-20T01:00:19.329Z,11.90
2019-05-20T01:02:56.439Z,12.50
2019-05-20T01:05:17.014Z,13.17
2019-05-20T01:07:44.934Z,10.80
2019-05-20T01:10:13.936Z,10.27
2019-05-20T01:12:41.730Z,12.83
2019-05-20T01:15:10.379Z,9.97
2019-05-20T01:17:38.387Z,9.53
2019-05-20T01:20:06.310Z,9.57
2019-05-20T01:22:34.110Z,12.10
2019-05-20T01:25:02.072Z,11.07
2019-05-20T01:27:29.876Z,12.97
2019-05-20T01:29:57.583Z,12.50
2019-05-20T01:32:25.348Z,12.80
2019-05-20T01:34:53.058Z,13.23
2019-05-20T01:37:20.828Z,12.77
2019-05-20T01:39:48.658Z,11.17
2019-05-20T01:42:16.556Z,14.20
2019-05-20T01:44:44.346Z,10.53
2019-05-20T01:47:12.137Z,12.87
2019-05-20T01:49:39.860Z,10.30
2019-05-20T01:52:07.646Z,12.23
2019-05-20T01:54:35.447Z,14.83
2019-05-20T01:57:03.318Z,13.73
2019-05-20T01:59:31.116Z,11.47
2019-05-20T02:01:59.032Z,13.13
2019-05-20T02:04:26.847Z,11.83
2019-05-20T02:06:54.625Z,12.77
2019-05-20T02:09:22.349Z,11.53
2019-05-20T02:11:50.140Z,11.00
2019-05-20T02:14:21.433Z,11.07
2019-05-20T02:16:49.202Z,11.47
2019-05-20T02:19:16.938Z,11.67
2019-05-20T02:21:44.679Z,12.03
2019-05-20T02:24:12.338Z,12.20
2019-05-20T02:26:40.252Z,12.73
2019-05-20T02:29:07.983Z,11.23
2019-05-20T02:31:35.724Z,14.33
2019-05-20T02:34:03.543Z,11.90
2019-05-20T02:36:31.257Z,12.13
2019-05-20T02:38:59.024Z,12.80
2019-05-20T02:41:27.277Z,11.70
2019-05-20T02:43:55.024Z,13.50
2019-05-20T02:46:23.017Z,14.27
2019-05-20T02:48:50.788Z,13.03
2019-05-20T02:51:30.315Z,11.63
2019-05-20T02:54:00.597Z,11.90
2019-05-20T02:56:28.504Z,10.83
2019-05-20T02:58:56.562Z,13.97
2019-05-20T03:01:24.615Z,11.60
2019-05-20T03:04:09.998Z,13.63
2019-05-20T03:06:22.249Z,11.80
2019-05-20T03:08:50.101Z,12.00
2019-05-20T03:11:18.814Z,11.87
2019-05-20T03:13:46.605Z,14.63
2019-05-20T03:16:15.737Z,13.70
2019-05-20T03:18:44.786Z,12.93
2019-05-20T03:21:12.627Z,14.10
2019-05-20T03:23:40.490Z,12.60
2019-05-20T03:26:08.358Z,11.40
2019-05-20T03:28:36.154Z,12.83
2019-05-20T03:31:04.285Z,13.47
2019-05-20T03:33:32.019Z,12.87
2019-05-20T03:35:59.962Z,15.20
2019-05-20T03:38:28.218Z,13.17
2019-05-20T03:40:55.903Z,14.20
2019-05-20T03:43:24.790Z,13.20
2019-05-20T03:45:52.582Z,16.90
2019-05-20T03:48:20.431Z,16.60
2019-05-20T03:50:48.145Z,16.27
2019-05-20T03:53:15.940Z,15.90
2019-05-20T03:55:44.343Z,14.93
2019-05-20T03:58:13.695Z,14.17
2019-05-20T04:00:46.782Z,15.03
2019-05-20T04:03:15.650Z,14.37
2019-05-20T04:05:43.899Z,12.47
2019-05-20T04:08:11.949Z,16.90
2019-05-20T04:10:39.822Z,14.37
2019-05-20T04:13:08.431Z,14.53
2019-05-20T04:15:36.243Z,15.63
2019-05-20T04:18:04.647Z,15.27
2019-05-20T04:20:32.561Z,17.90
2019-05-20T04:23:00.413Z,15.80
2019-05-20T04:25:28.239Z,14.43
2019-05-20T04:27:56.089Z,17.97
2019-05-20T04:30:23.850Z,19.87
2019-05-20T04:32:51.738Z,16.37
2019-05-20T04:35:22.965Z,16.10
2019-05-20T04:37:49.728Z,14.57
2019-05-20T04:40:17.673Z,17.60
2019-05-20T04:42:45.425Z,16.47
2019-05-20T04:45:15.098Z,12.83
2019-05-20T04:47:43.858Z,17.10
2019-05-20T04:50:11.762Z,21.33
2019-05-20T04:52:39.585Z,16.63
2019-05-20T04:55:08.232Z,18.30
2019-05-20T04:57:36.059Z,19.23
2019-05-20T05:00:05.209Z,17.27
2019-05-20T05:02:32.928Z,18.83
2019-05-20T05:05:00.711Z,17.40
2019-05-20T05:07:28.545Z,15.07
2019-05-20T05:09:56.421Z,17.50
2019-05-20T05:12:24.383Z,16.73
2019-05-20T05:14:52.278Z,17.10
2019-05-20T05:17:20.210Z,15.60
2019-05-20T05:19:48.081Z,16.77
2019-05-20T05:22:16.010Z,16.97
2019-05-20T05:24:44.106Z,23.77
2019-05-20T05:27:11.928Z,20.90
2019-05-20T05:29:39.705Z,20.40
2019-05-20T05:32:07.630Z,18.70
2019-05-20T05:34:35.509Z,19.80
2019-05-20T05:37:03.779Z,17.67
2019-05-20T05:39:31.797Z,18.00
2019-05-20T05:42:00.483Z,17.37
2019-05-20T05:44:28.278Z,17.23
2019-05-20T05:46:56.059Z,14.53
2019-05-20T05:49:23.838Z,22.50
2019-05-20T05:51:51.581Z,20.67
2019-05-20T05:54:19.335Z,15.00
2019-05-20T05:56:47.052Z,22.50
2019-05-20T05:59:15.020Z,17.80
2019-05-20T06:01:42.877Z,19.07
2019-05-20T06:04:10.760Z,16.63
2019-05-20T06:06:38.504Z,15.47
2019-05-20T06:09:07.214Z,15.37
2019-05-20T06:11:35.043Z,14.20
2019-05-20T06:14:02.920Z,17.93
2019-05-20T06:16:36.540Z,18.43
2019-05-20T06:19:00.458Z,22.00
2019-05-20T06:21:28.200Z,19.90
2019-05-20T06:23:55.962Z,18.00
2019-05-20T06:26:23.650Z,18.67
2019-05-20T06:28:51.418Z,16.73
2019-05-20T06:31:19.218Z,19.90
2019-05-20T06:33:46.911Z,21.97
2019-05-20T06:36:26.363Z,19.57
2019-05-20T06:39:04.945Z,17.63
2019-05-20T06:41:32.651Z,19.07
2019-05-20T06:44:00.495Z,19.40
2019-05-20T06:46:28.289Z,19.27
2019-05-20T06:48:56.006Z,17.33
2019-05-20T06:51:23.789Z,18.83
2019-05-20T06:53:51.543Z,19.53
2019-05-20T06:56:19.556Z,20.07
2019-05-20T06:58:47.404Z,18.10
2019-05-20T07:01:15.180Z,23.93
2019-05-20T07:03:42.924Z,19.23
2019-05-20T07:06:10.770Z,20.37
2019-05-20T07:08:39.199Z,16.80
2019-05-20T07:11:07.892Z,19.43
2019-05-20T07:13:35.627Z,18.43
2019-05-20T07:16:03.533Z,18.30
2019-05-20T07:18:31.433Z,18.73
2019-05-20T07:20:59.255Z,18.13
2019-05-20T07:23:27.116Z,19.10
2019-05-20T07:25:54.870Z,19.80
2019-05-20T07:28:22.587Z,17.10
2019-05-20T07:30:50.379Z,19.77
2019-05-20T07:33:18.667Z,18.33
2019-05-20T07:35:46.506Z,20.40
2019-05-20T07:38:14.224Z,18.10
2019-05-20T07:40:42.696Z,22.10
2019-05-20T07:43:10.838Z,22.37
2019-05-20T07:45:39.239Z,18.67
2019-05-20T07:48:07.123Z,20.37
2019-05-20T07:50:37.725Z,21.77
2019-05-20T07:53:06.750Z,21.93
2019-05-20T07:55:39.751Z,20.60
2019-05-20T07:58:08.789Z,19.77
2019-05-20T08:00:37.831Z,20.57
2019-05-20T08:03:05.663Z,20.83
2019-05-20T08:05:33.717Z,20.87
2019-05-20T08:08:01.718Z,21.90
2019-05-20T08:10:29.704Z,23.50
2019-05-20T08:12:57.689Z,20.33
2019-05-20T08:15:26.068Z,19.33
2019-05-20T08:17:55.036Z,22.47
2019-05-20T08:20:23.039Z,18.67
2019-05-20T08:22:50.817Z,25.10
2019-05-20T08:25:18.779Z,23.40
2019-05-20T08:27:46.693Z,21.43
2019-05-20T08:30:15.298Z,23.07
2019-05-20T08:32:43.075Z,23.03
2019-05-20T08:35:11.215Z,24.13
2019-05-20T08:37:45.559Z,20.97
2019-05-20T08:40:09.247Z,20.03
2019-05-20T08:42:37.122Z,21.23
2019-05-20T08:45:05.463Z,20.93
2019-05-20T08:47:34.398Z,25.57
2019-05-20T08:50:04.883Z,25.87
2019-05-20T08:52:32.286Z,20.87
2019-05-20T08:55:00.024Z,22.73
2019-05-20T08:57:27.922Z,22.77
2019-05-20T08:59:55.668Z,25.83
2019-05-20T09:02:23.395Z,24.07
2019-05-20T09:04:51.223Z,25.17
2019-05-20T09:07:19.116Z,22.50
2019-05-20T09:09:46.836Z,25.73
2019-05-20T09:12:14.623Z,25.37
2019-05-20T09:14:42.432Z,25.40
2019-05-20T09:17:11.452Z,24.17
2019-05-20T09:19:39.429Z,30.70
2019-05-20T09:22:07.209Z,23.50
2019-05-20T09:24:35.092Z,25.93
2019-05-20T09:27:03.300Z,27.17
2019-05-20T09:29:31.047Z,25.93
2019-05-20T09:31:59.105Z,28.73
2019-05-20T09:34:27.652Z,22.67
2019-05-20T09:36:55.556Z,21.27
2019-05-20T09:39:23.355Z,21.60
2019-05-20T09:41:51.131Z,20.17
2019-05-20T09:44:18.912Z,19.53
2019-05-20T09:46:46.874Z,25.03
2019-05-20T09:49:15.097Z,20.77
2019-05-20T09:51:43.348Z,21.13
2019-05-20T09:54:11.159Z,25.50
2019-05-20T09:56:39.182Z,25.23
2019-05-20T09:59:07.762Z,22.80
2019-05-20T10:01:39.542Z,30.13
2019-05-20T10:04:05.356Z,24.30
2019-05-20T10:06:33.157Z,28.77
2019-05-20T10:09:00.911Z,26.53
2019-05-20T10:11:28.796Z,30.60
2019-05-20T10:13:56.651Z,29.87
2019-05-20T10:16:24.448Z,29.63
2019-05-20T10:18:55.430Z,28.67
2019-05-20T10:21:22.831Z,30.37
2019-05-20T10:23:50.784Z,30.57
2019-05-20T10:26:18.728Z,34.97
2019-05-20T10:28:47.656Z,37.63
2019-05-20T10:31:15.655Z,31.93
2019-05-20T10:33:43.392Z,40.10
2019-05-20T10:36:11.110Z,36.13
2019-05-20T10:38:56.841Z,36.87
2019-05-20T10:41:10.825Z,37.43
2019-05-20T10:43:38.654Z,38.20
2019-05-20T10:46:06.565Z,34.50
2019-05-20T10:48:34.398Z,35.97
2019-05-20T10:51:02.229Z,31.33
2019-05-20T10:53:30.048Z,32.57
2019-05-20T10:55:58.520Z,34.83
2019-05-20T10:58:26.882Z,29.83
2019-05-20T11:01:02.277Z,29.37
2019-05-20T11:03:24.395Z,32.23
2019-05-20T11:05:52.201Z,31.93
2019-05-20T11:08:20.865Z,30.07
2019-05-20T11:10:48.582Z,27.87
2019-05-20T11:13:16.738Z,22.87
2019-05-20T11:15:44.600Z,22.60
2019-05-20T11:18:12.459Z,22.80
2019-05-20T11:20:40.151Z,20.27
2019-05-20T11:23:07.886Z,17.97
2019-05-20T11:25:35.648Z,14.50
2019-05-20T11:28:03.644Z,13.20
2019-05-20T11:30:31.461Z,16.07
2019-05-20T11:33:00.021Z,18.83
2019-05-20T11:35:28.036Z,12.23
2019-05-20T11:37:55.844Z,14.10
2019-05-20T11:40:24.051Z,8.87
2019-05-20T11:42:52.892Z,7.17
2019-05-20T11:45:22.394Z,4.20
2019-05-20T11:47:50.242Z,3.50
2019-05-20T11:50:18.381Z,3.47
2019-05-20T11:52:46.195Z,4.00
2019-05-20T11:55:14.220Z,5.20
2019-05-20T11:57:42.008Z,4.13
2019-05-20T12:00:11.126Z,3.40
2019-05-20T12:02:39.069Z,2.20
2019-05-20T12:05:07.220Z,2.93
2019-05-20T12:07:34.998Z,1.97
2019-05-20T12:10:03.583Z,2.17
2019-05-20T12:12:31.328Z,1.87
2019-05-20T12:14:59.204Z,1.80
2019-05-20T12:17:26.966Z,2.50
2019-05-20T12:19:54.708Z,1.70
2019-05-20T12:22:22.454Z,2.70
2019-05-20T12:24:51.774Z,2.10
2019-05-20T12:27:19.827Z,3.40
2019-05-20T12:29:47.630Z,2.13
2019-05-20T12:32:15.425Z,2.50
2019-05-20T12:34:43.384Z,2.23
2019-05-20T12:37:11.231Z,8.70
2019-05-20T12:39:39.139Z,1.90
2019-05-20T12:42:07.240Z,2.87
2019-05-20T12:44:34.994Z,3.10
2019-05-20T12:47:02.695Z,4.90
2019-05-20T12:49:30.833Z,1.07
2019-05-20T12:51:58.671Z,1.30
2019-05-20T12:54:26.650Z,1.20
2019-05-20T12:56:54.362Z,1.90
2019-05-20T12:59:22.127Z,1.70
2019-05-20T13:01:49.836Z,0.97
2019-05-20T13:04:18.210Z,1.47
2019-05-20T13:06:45.951Z,3.00
2019-05-20T13:09:13.807Z,3.07
2019-05-20T13:11:41.537Z,2.40
2019-05-20T13:14:10.176Z,4.53
2019-05-20T13:16:37.864Z,3.60
2019-05-20T13:19:05.742Z,4.53
2019-05-20T13:21:33.545Z,5.70
2019-05-20T13:24:01.388Z,2.40
2019-05-20T13:26:29.050Z,3.27
2019-05-20T13:28:59.696Z,2.43
2019-05-20T13:31:26.577Z,2.43
2019-05-20T13:33:54.387Z,2.23
2019-05-20T13:36:22.370Z,2.27
2019-05-20T13:38:50.571Z,4.10
2019-05-20T13:41:18.278Z,3.37
2019-05-20T13:43:46.141Z,3.07
2019-05-20T13:46:14.080Z,4.47
2019-05-20T13:48:41.886Z,3.07
2019-05-20T13:51:10.684Z,1.63
2019-05-20T13:53:38.619Z,3.40
2019-05-20T13:56:06.411Z,3.57
2019-05-20T13:58:34.437Z,2.43
2019-05-20T14:01:02.285Z,1.50
2019-05-20T14:03:30.080Z,1.47
2019-05-20T14:05:57.878Z,3.43
2019-05-20T14:08:25.583Z,2.00
2019-05-20T14:11:03.599Z,1.20
2019-05-20T14:13:27.352Z,1.23
2019-05-20T14:15:56.425Z,1.60
2019-05-20T14:18:26.080Z,2.60
2019-05-20T14:20:55.037Z,2.40
2019-05-20T14:23:22.854Z,2.03
2019-05-20T14:25:50.959Z,1.60
2019-05-20T14:28:18.827Z,1.70
2019-05-20T14:30:46.706Z,1.80
2019-05-20T14:33:14.601Z,1.63
2019-05-20T14:35:42.408Z,2.63
2019-05-20T14:38:10.834Z,1.60
2019-05-20T14:40:39.362Z,1.97
2019-05-20T14:43:07.890Z,1.37
2019-05-20T14:45:35.768Z,1.40
2019-05-20T14:48:03.885Z,1.50
2019-05-20T14:50:31.865Z,1.43
2019-05-20T14:52:59.629Z,1.90
2019-05-20T14:55:27.555Z,1.67
2019-05-20T14:57:55.354Z,1.63
2019-05-20T15:00:23.234Z,1.50
2019-05-20T15:02:52.844Z,1.37
2019-05-20T15:05:20.839Z,1.53
2019-05-20T15:07:48.626Z,2.13
2019-05-20T15:10:16.620Z,1.53
2019-05-20T15:12:45.255Z,2.47
2019-05-20T15:15:15.022Z,1.90
2019-05-20T15:17:42.721Z,1.50
2019-05-20T15:20:10.841Z,3.23
2019-05-20T15:22:38.566Z,1.77
2019-05-20T15:25:07.104Z,2.07
2019-05-20T15:27:34.951Z,2.20
2019-05-20T15:30:02.839Z,2.17
2019-05-20T15:32:31.207Z,1.40
2019-05-20T15:34:59.805Z,1.70
2019-05-20T15:37:27.532Z,2.10
2019-05-20T15:39:55.736Z,1.50
2019-05-20T15:42:23.524Z,1.27
2019-05-20T15:44:51.390Z,1.50
2019-05-20T15:47:19.415Z,2.47
2019-05-20T15:49:47.213Z,1.33
2019-05-20T15:52:15.043Z,1.60
2019-05-20T15:54:42.896Z,1.53
2019-05-20T15:57:10.779Z,5.10
2019-05-20T15:59:46.154Z,2.80
2019-05-20T16:02:08.358Z,2.77
2019-05-20T16:04:36.074Z,4.03
2019-05-20T16:07:04.071Z,3.80
2019-05-20T16:09:31.877Z,1.43
2019-05-20T16:11:59.629Z,1.57
2019-05-20T16:14:28.538Z,2.73
2019-05-20T16:16:56.574Z,2.93
2019-05-20T16:19:24.333Z,1.50
2019-05-20T16:21:52.128Z,2.23
2019-05-20T16:24:19.899Z,3.43
2019-05-20T16:26:47.640Z,1.70
2019-05-20T16:29:15.465Z,2.77
2019-05-20T16:31:43.364Z,3.73
2019-05-20T16:34:11.132Z,2.47
2019-05-20T16:36:39.088Z,2.03
2019-05-20T16:39:08.224Z,1.57
2019-05-20T16:41:36.126Z,4.37
2019-05-20T16:44:04.002Z,1.37
2019-05-20T16:46:33.182Z,1.50
2019-05-20T16:49:01.040Z,1.90
2019-05-20T16:51:28.909Z,2.00
2019-05-20T16:53:56.731Z,1.67
2019-05-20T16:56:24.535Z,2.00
2019-05-20T16:58:52.411Z,2.03
2019-05-20T17:01:20.952Z,1.70
2019-05-20T17:03:49.720Z,3.80
2019-05-20T17:06:17.569Z,3.97
2019-05-20T17:08:45.393Z,1.90
2019-05-20T17:11:13.357Z,3.93
2019-05-20T17:13:41.168Z,2.77
2019-05-20T17:16:09.003Z,7.40
2019-05-20T17:18:36.850Z,7.43
2019-05-20T17:21:04.800Z,9.37
2019-05-20T17:23:32.667Z,5.50
2019-05-20T17:26:00.369Z,4.50
2019-05-20T17:28:28.128Z,2.00
2019-05-20T17:30:55.932Z,3.47
2019-05-20T17:33:23.810Z,2.70
2019-05-20T17:35:51.631Z,3.37
2019-05-20T17:38:22.446Z,4.83
2019-05-20T17:40:52.436Z,12.70
2019-05-20T17:43:25.581Z,9.50
2019-05-20T17:45:59.583Z,6.53
2019-05-20T17:48:30.113Z,6.23
2019-05-20T17:51:00.219Z,4.83
2019-05-20T17:53:28.521Z,3.23
2019-05-20T17:56:00.727Z,2.80
2019-05-20T17:58:29.367Z,6.77
2019-05-20T18:01:12.181Z,2.00
2019-05-20T18:03:27.976Z,2.80
2019-05-20T18:05:58.338Z,4.03
2019-05-20T18:08:34.928Z,5.47
2019-05-20T18:11:07.480Z,5.23
2019-05-20T18:13:36.398Z,6.43
2019-05-20T18:16:11.589Z,3.47
2019-05-20T18:18:47.548Z,6.53
2019-05-20T18:21:19.037Z,6.50
2019-05-20T18:23:48.724Z,4.17
2019-05-20T18:26:23.285Z,4.83
2019-05-20T18:28:52.143Z,4.13
2019-05-20T18:31:32.047Z,3.93
2019-05-20T18:33:51.372Z,3.93
2019-05-20T18:36:19.191Z,3.47
2019-05-20T18:38:49.443Z,5.57
2019-05-20T18:41:16.736Z,6.30
2019-05-20T18:43:44.637Z,8.23
2019-05-20T18:46:12.949Z,6.30
2019-05-20T18:48:41.486Z,4.20
2019-05-20T18:51:09.788Z,3.80
2019-05-20T18:53:37.881Z,4.93
2019-05-20T18:56:06.417Z,4.57
2019-05-20T18:58:34.315Z,6.70
2019-05-20T19:01:02.343Z,4.47
2019-05-20T19:03:30.385Z,5.43
2019-05-20T19:05:58.642Z,6.67
2019-05-20T19:08:26.560Z,4.43
2019-05-20T19:10:54.393Z,4.23
2019-05-20T19:13:22.553Z,3.33
2019-05-20T19:15:50.461Z,3.53
2019-05-20T19:18:18.183Z,5.23
2019-05-20T19:20:46.190Z,4.17
2019-05-20T19:23:14.099Z,10.33
2019-05-20T19:25:43.938Z,6.50
2019-05-20T19:28:11.670Z,12.30
2019-05-20T19:30:39.785Z,20.93
2019-05-20T19:33:07.625Z,30.93
2019-05-20T19:35:35.365Z,39.73
2019-05-20T19:38:03.221Z,29.33
2019-05-20T19:40:30.982Z,26.27
2019-05-20T19:42:58.859Z,16.33
2019-05-20T19:45:26.660Z,16.00
2019-05-20T19:47:54.412Z,18.03
2019-05-20T19:50:22.259Z,23.70
2019-05-20T19:52:50.105Z,28.87
2019-05-20T19:55:18.985Z,32.63
2019-05-20T19:57:47.274Z,28.77
2019-05-20T20:00:16.498Z,22.10
2019-05-20T20:02:44.415Z,10.60
2019-05-20T20:05:12.885Z,7.23
2019-05-20T20:07:40.691Z,6.90
2019-05-20T20:10:09.365Z,3.80
2019-05-20T20:12:37.152Z,4.40
2019-05-20T20:15:05.438Z,4.93
2019-05-20T20:17:33.194Z,3.57
2019-05-20T20:20:01.211Z,3.50
2019-05-20T20:22:29.036Z,3.83
2019-05-20T20:24:56.799Z,3.33
2019-05-20T20:27:24.595Z,3.60
2019-05-20T20:29:52.356Z,3.63
2019-05-20T20:32:35.156Z,3.67
2019-05-20T20:34:49.864Z,3.40
2019-05-20T20:37:17.570Z,4.03
2019-05-20T20:39:47.055Z,4.97
2019-05-20T20:42:14.854Z,107.53
2019-05-20T20:44:42.591Z,83.80
2019-05-20T20:47:10.319Z,49.43
2019-05-20T20:49:38.109Z,45.47
2019-05-20T20:52:05.992Z,28.87
2019-05-20T20:54:33.818Z,35.63
2019-05-20T20:57:01.593Z,30.93
2019-05-20T20:59:29.860Z,24.53
2019-05-20T21:01:59.207Z,18.67
2019-05-20T21:04:27.349Z,11.30
2019-05-20T21:06:55.049Z,9.63
2019-05-20T21:09:22.790Z,10.50
2019-05-20T21:11:50.686Z,10.53
2019-05-20T21:14:18.447Z,8.63
2019-05-20T21:16:46.252Z,8.03
2019-05-20T21:19:14.595Z,9.87
2019-05-20T21:21:42.276Z,10.10
2019-05-20T21:24:10.047Z,6.20
2019-05-20T21:26:37.724Z,6.97
2019-05-20T21:29:05.484Z,6.70
2019-05-20T21:31:33.291Z,7.53
2019-05-20T21:34:01.164Z,7.90
2019-05-20T21:36:28.863Z,6.57
2019-05-20T21:38:56.654Z,7.73
2019-05-20T21:41:24.403Z,6.83
2019-05-20T21:43:52.841Z,6.03
2019-05-20T21:46:20.536Z,6.47
2019-05-20T21:48:48.321Z,7.63
2019-05-20T21:51:16.191Z,5.87
2019-05-20T21:53:43.964Z,8.53
2019-05-20T21:56:11.848Z,8.03
2019-05-20T21:58:39.551Z,7.17
2019-05-20T22:01:07.514Z,8.73
2019-05-20T22:03:36.446Z,7.77
2019-05-20T22:06:04.447Z,10.20
2019-05-20T22:08:32.170Z,9.60
2019-05-20T22:10:59.975Z,11.07
2019-05-20T22:13:27.682Z,12.43
2019-05-20T22:15:55.579Z,10.07
2019-05-20T22:18:24.692Z,8.93
2019-05-20T22:20:52.557Z,8.40
2019-05-20T22:23:24.669Z,9.00
2019-05-20T22:25:52.495Z,10.17
2019-05-20T22:28:20.289Z,10.57
2019-05-20T22:30:48.036Z,10.97
2019-05-20T22:33:15.967Z,9.93
2019-05-20T22:35:43.726Z,8.60
2019-05-20T22:38:11.429Z,10.30
2019-05-20T22:40:39.213Z,8.83
2019-05-20T22:43:06.953Z,7.50
2019-05-20T22:45:34.744Z,6.87
2019-05-20T22:48:03.198Z,6.80
2019-05-20T22:50:31.587Z,8.77
2019-05-20T22:52:59.365Z,8.63
2019-05-20T22:55:27.107Z,13.27
2019-05-20T22:57:55.245Z,8.93
2019-05-20T23:00:23.639Z,10.63
2019-05-20T23:02:51.316Z,7.50
2019-05-20T23:05:19.415Z,8.80
2019-05-20T23:07:47.157Z,8.03
2019-05-20T23:10:15.149Z,8.90
2019-05-20T23:12:42.828Z,7.23
2019-05-20T23:15:11.244Z,7.40
2019-05-20T23:17:38.980Z,10.47
2019-05-20T23:20:07.440Z,11.20
2019-05-20T23:22:35.172Z,8.20
2019-05-20T23:25:03.378Z,10.27
2019-05-20T23:27:31.117Z,11.57
2019-05-20T23:29:58.932Z,11.87
2019-05-20T23:32:26.654Z,11.23
2019-05-20T23:34:54.367Z,7.40
2019-05-20T23:37:22.152Z,12.27
2019-05-20T23:39:50.071Z,10.43
2019-05-20T23:42:17.967Z,8.57
2019-05-20T23:44:45.717Z,11.27
2019-05-20T23:47:13.474Z,8.00
2019-05-20T23:49:41.296Z,8.90
2019-05-20T23:52:09.115Z,8.77
2019-05-20T23:54:36.907Z,9.07
2019-05-20T23:57:04.691Z,6.57
2019-05-20T23:59:32.440Z,7.77
